Time;durP1;ratioP1;P1;durP2;ratioP2;P2;SDS_P1;SDS_P2;PMS_P1;PMS_P2;Temp;Humidity;BMP_temperature;BMP_pressure;BME280_temperature;BME280_humidity;BME280_pressure;Samples;Min_cycle;Max_cycle;Signal;HPM_P1;HPM_P2
2023/07/08 00:01:55;;;;;;;7.87;5.50;;;22.50;46.60;;;;;;5037333;28;20467;-84
2023/07/08 00:04:22;;;;;;;8.70;5.63;;;22.40;47.40;;;;;;5048352;28;20177;-86
2023/07/08 00:06:47;;;;;;;8.50;6.30;;;22.30;46.90;;;;;;5043729;28;20184;-85
2023/07/08 00:09:13;;;;;;;10.60;5.90;;;22.30;46.90;;;;;;5035034;28;20458;-83
2023/07/08 00:11:38;;;;;;;8.07;5.10;;;22.20;46.50;;;;;;5034441;28;20181;-83
2023/07/08 00:14:04;;;;;;;8.00;4.63;;;22.40;46.80;;;;;;5031970;28;20266;-87
2023/07/08 00:16:30;;;;;;;11.50;6.43;;;22.30;46.90;;;;;;5036855;28;20223;-86
2023/07/08 00:18:55;;;;;;;8.13;5.03;;;22.30;47.40;;;;;;5037520;28;20209;-86
2023/07/08 00:21:21;;;;;;;8.50;5.73;;;22.20;47.70;;;;;;5034786;28;20197;-84
2023/07/08 00:23:48;;;;;;;10.33;6.17;;;22.10;47.30;;;;;;5035721;28;20205;-87
2023/07/08 00:26:24;;;;;;;14.07;6.57;;;22.10;46.30;;;;;;5034573;28;20272;-84
2023/07/08 00:28:50;;;;;;;10.50;5.50;;;22.20;46.60;;;;;;5049354;28;20561;-87
2023/07/08 00:31:15;;;;;;;9.40;4.73;;;22.20;46.60;;;;;;5053080;28;20499;-86
2023/07/08 00:33:41;;;;;;;8.33;4.60;;;22.50;45.70;;;;;;5035128;28;20189;-87
2023/07/08 00:36:15;;;;;;;8.47;5.13;;;22.70;44.80;;;;;;5033515;28;20196;-87
2023/07/08 00:38:44;;;;;;;8.63;5.03;;;22.80;44.90;;;;;;5038706;28;20658;-88
2023/07/08 00:41:15;;;;;;;9.20;5.63;;;22.80;44.60;;;;;;5035686;28;20471;-86
2023/07/08 00:43:58;;;;;;;9.17;5.77;;;22.80;45.50;;;;;;5037760;28;20455;-86
2023/07/08 00:46:29;;;;;;;8.40;5.47;;;22.70;45.90;;;;;;5037213;28;20465;-85
2023/07/08 00:49:08;;;;;;;8.83;5.53;;;22.60;46.70;;;;;;5035876;28;20486;-86
2023/07/08 00:51:38;;;;;;;7.57;5.50;;;22.30;47.10;;;;;;5049627;28;21021;-86
2023/07/08 00:54:05;;;;;;;8.23;5.67;;;22.10;47.80;;;;;;5049302;28;20435;-87
2023/07/08 00:56:41;;;;;;;10.33;5.57;;;22.10;48.30;;;;;;5042385;28;20446;-86
2023/07/08 00:59:20;;;;;;;9.73;6.10;;;21.90;49.60;;;;;;5033563;28;20482;-86
2023/07/08 01:01:46;;;;;;;10.83;5.37;;;21.80;49.80;;;;;;5034196;28;20458;-83
2023/07/08 01:04:28;;;;;;;10.00;5.73;;;21.80;49.00;;;;;;5040063;28;20519;-85
2023/07/08 01:06:57;;;;;;;9.70;5.33;;;21.70;49.50;;;;;;5044758;28;20426;-85
2023/07/08 01:09:45;;;;;;;11.27;5.80;;;21.60;49.50;;;;;;5039230;28;20478;-84
2023/07/08 01:12:16;;;;;;;8.90;5.17;;;21.40;50.30;;;;;;5035271;28;20949;-86
2023/07/08 01:14:43;;;;;;;16.07;6.57;;;21.40;49.20;;;;;;5053136;28;20470;-86
2023/07/08 01:17:13;;;;;;;16.03;8.83;;;21.40;50.10;;;;;;5040713;28;20537;-85
2023/07/08 01:19:40;;;;;;;20.37;9.87;;;21.30;50.30;;;;;;5062418;28;20436;-85
2023/07/08 01:22:07;;;;;;;18.70;8.37;;;21.20;51.60;;;;;;5055893;28;20490;-86
2023/07/08 01:24:36;;;;;;;10.03;6.50;;;21.10;51.10;;;;;;5036733;28;20435;-85
2023/07/08 01:27:04;;;;;;;14.63;6.33;;;21.00;50.80;;;;;;5038186;28;20439;-86
2023/07/08 01:29:29;;;;;;;10.03;6.30;;;20.90;51.70;;;;;;5038703;28;20471;-86
2023/07/08 01:31:56;;;;;;;8.53;5.50;;;20.90;51.50;;;;;;5038169;28;20432;-87
2023/07/08 01:34:23;;;;;;;10.00;6.17;;;20.80;51.60;;;;;;5044750;28;20303;-86
2023/07/08 01:36:53;;;;;;;8.33;5.00;;;20.70;51.70;;;;;;5032327;28;20424;-86
2023/07/08 01:39:21;;;;;;;9.13;5.37;;;20.70;51.50;;;;;;5035366;28;20451;-87
2023/07/08 01:41:47;;;;;;;9.70;5.80;;;20.70;51.60;;;;;;5035899;28;20815;-86
2023/07/08 01:44:33;;;;;;;8.87;5.50;;;20.70;51.50;;;;;;5037400;28;20510;-87
2023/07/08 01:47:13;;;;;;;8.67;5.53;;;20.60;51.50;;;;;;5037617;28;20242;-85
2023/07/08 01:49:41;;;;;;;10.73;5.13;;;20.80;50.90;;;;;;5038518;28;20461;-86
2023/07/08 01:52:08;;;;;;;9.93;5.77;;;20.80;51.30;;;;;;5039187;28;20428;-86
2023/07/08 01:54:34;;;;;;;9.47;5.57;;;20.80;51.30;;;;;;5037075;28;21285;-86
2023/07/08 01:57:00;;;;;;;9.60;5.80;;;20.70;51.10;;;;;;5040529;28;20442;-86
2023/07/08 01:59:26;;;;;;;9.23;5.57;;;20.70;51.00;;;;;;5038198;28;20216;-86
2023/07/08 02:01:54;;;;;;;9.50;5.70;;;20.60;51.70;;;;;;5036644;28;20455;-86
2023/07/08 02:04:21;;;;;;;9.87;6.57;;;20.50;54.30;;;;;;5049696;28;20208;-86
2023/07/08 02:06:54;;;;;;;13.13;6.80;;;20.20;55.00;;;;;;5044484;28;20431;-85
2023/07/08 02:09:20;;;;;;;13.33;5.80;;;19.90;57.50;;;;;;5040787;28;20444;-86
2023/07/08 02:11:46;;;;;;;13.17;5.23;;;;;;;;;;5036529;28;20462;-86
2023/07/08 02:14:12;;;;;;;9.90;5.40;;;19.20;59.50;;;;;;5051166;28;20946;-86
2023/07/08 02:16:38;;;;;;;11.90;6.23;;;;;;;;;;5037445;28;20441;-85
2023/07/08 02:19:03;;;;;;;10.40;6.50;;;18.90;62.50;;;;;;5039146;28;20223;-86
2023/07/08 02:21:30;;;;;;;9.37;5.37;;;18.60;65.60;;;;;;5040427;28;20457;-85
2023/07/08 02:23:56;;;;;;;9.70;5.73;;;18.50;67.40;;;;;;5039336;28;20165;-85
2023/07/08 02:26:22;;;;;;;10.50;5.10;;;18.30;67.90;;;;;;5037035;28;23530;-85
2023/07/08 02:28:47;;;;;;;9.67;5.33;;;18.30;68.00;;;;;;5035026;28;20975;-88
2023/07/08 02:31:13;;;;;;;7.13;5.10;;;18.30;65.90;;;;;;5038486;28;20209;-86
2023/07/08 02:33:39;;;;;;;13.13;6.17;;;18.60;64.10;;;;;;5030778;28;20779;-86
2023/07/08 02:36:04;;;;;;;11.67;5.33;;;18.80;64.10;;;;;;5051148;28;20322;-87
2023/07/08 02:38:30;;;;;;;12.80;6.33;;;18.90;64.30;;;;;;5037532;28;20196;-85
2023/07/08 02:40:56;;;;;;;12.43;6.43;;;18.90;65.10;;;;;;5036017;28;20188;-86
2023/07/08 02:43:22;;;;;;;11.70;6.43;;;18.60;66.90;;;;;;5029437;28;20191;-87
2023/07/08 02:45:52;;;;;;;10.87;5.77;;;18.40;69.20;;;;;;5044693;28;20924;-86
2023/07/08 02:48:18;;;;;;;10.03;5.57;;;18.10;71.70;;;;;;5036360;28;20208;-85
2023/07/08 02:50:44;;;;;;;12.70;6.03;;;17.80;74.40;;;;;;5040716;28;20491;-86
2023/07/08 02:53:09;;;;;;;9.40;6.27;;;17.70;76.10;;;;;;5040724;28;20469;-86
2023/07/08 02:55:35;;;;;;;12.23;5.70;;;17.60;78.10;;;;;;5040600;28;20230;-86
2023/07/08 02:58:00;;;;;;;11.97;5.23;;;17.60;79.20;;;;;;5045589;28;20211;-86
2023/07/08 03:00:26;;;;;;;9.73;5.73;;;17.50;80.10;;;;;;5038951;28;20208;-87
2023/07/08 03:02:51;;;;;;;16.13;6.00;;;17.50;81.60;;;;;;5036938;28;20200;-85
2023/07/08 03:05:17;;;;;;;9.50;5.60;;;17.50;83.10;;;;;;5034236;28;20579;-86
2023/07/08 03:07:43;;;;;;;13.80;5.10;;;17.30;86.80;;;;;;5044949;28;20177;-83
2023/07/08 03:10:09;;;;;;;13.33;6.40;;;17.30;87.50;;;;;;5059811;28;20841;-85
2023/07/08 03:12:34;;;;;;;13.63;6.43;;;17.20;89.00;;;;;;5039275;28;20185;-83
2023/07/08 03:15:00;;;;;;;9.03;5.53;;;17.20;90.00;;;;;;5043704;28;20446;-82
2023/07/08 03:17:25;;;;;;;12.70;5.97;;;17.20;90.20;;;;;;5038704;28;20283;-85
2023/07/08 03:19:51;;;;;;;9.13;4.97;;;17.30;90.70;;;;;;5042207;28;20263;-86
2023/07/08 03:22:16;;;;;;;8.70;4.50;;;17.30;91.60;;;;;;5041882;28;20235;-82
2023/07/08 03:24:45;;;;;;;10.33;5.80;;;17.30;91.90;;;;;;5036721;28;20185;-84
2023/07/08 03:27:15;;;;;;;8.50;4.70;;;17.30;92.50;;;;;;5038861;28;20242;-84
2023/07/08 03:29:40;;;;;;;13.60;6.00;;;17.20;93.40;;;;;;5035376;28;21318;-84
2023/07/08 03:32:11;;;;;;;11.90;6.53;;;17.20;94.30;;;;;;5038223;28;20451;-86
2023/07/08 03:34:37;;;;;;;10.27;6.20;;;17.20;94.40;;;;;;5039226;28;20193;-84
2023/07/08 03:37:03;;;;;;;13.07;6.10;;;17.20;94.40;;;;;;5046932;28;20457;-85
2023/07/08 03:39:29;;;;;;;13.37;5.80;;;17.20;94.40;;;;;;5044408;28;20205;-86
2023/07/08 03:41:55;;;;;;;13.27;5.87;;;17.30;94.70;;;;;;5041674;28;20459;-82
2023/07/08 03:44:20;;;;;;;11.67;6.10;;;17.40;94.40;;;;;;5041320;28;20512;-86
2023/07/08 03:46:49;;;;;;;10.53;5.30;;;17.60;94.00;;;;;;5032944;28;20592;-84
2023/07/08 03:49:15;;;;;;;11.30;6.20;;;17.70;94.00;;;;;;5037644;28;20200;-85
2023/07/08 03:51:41;;;;;;;12.60;6.33;;;17.80;94.30;;;;;;5039713;28;20442;-86
2023/07/08 03:54:11;;;;;;;9.90;5.30;;;17.80;94.80;;;;;;5037852;28;20442;-85
2023/07/08 03:56:36;;;;;;;13.30;6.17;;;17.70;95.10;;;;;;5049338;28;20189;-85
2023/07/08 03:59:02;;;;;;;8.70;5.57;;;17.70;95.90;;;;;;5055395;28;20450;-82
2023/07/08 04:01:27;;;;;;;10.70;6.57;;;17.70;96.20;;;;;;5044993;28;20601;-86
2023/07/08 04:03:55;;;;;;;12.00;6.37;;;17.60;97.20;;;;;;5042559;28;20239;-83
2023/07/08 04:06:21;;;;;;;14.40;7.00;;;17.50;97.40;;;;;;5042241;28;20188;-86
2023/07/08 04:08:46;;;;;;;12.13;6.63;;;17.50;97.90;;;;;;5041839;28;20451;-83
2023/07/08 04:11:15;;;;;;;11.50;6.13;;;17.60;97.80;;;;;;5043900;28;20279;-82
2023/07/08 04:13:41;;;;;;;12.70;6.53;;;17.60;98.10;;;;;;5036497;28;20284;-86
2023/07/08 04:16:08;;;;;;;11.80;6.17;;;17.70;98.00;;;;;;5039629;28;20595;-84
2023/07/08 04:18:33;;;;;;;12.10;6.03;;;18.10;97.50;;;;;;5037290;28;20181;-84
2023/07/08 04:20:59;;;;;;;10.27;6.43;;;18.10;97.70;;;;;;5035061;28;20436;-85
2023/07/08 04:23:25;;;;;;;10.40;5.83;;;18.30;97.40;;;;;;5045472;28;20180;-83
2023/07/08 04:25:55;;;;;;;13.80;6.23;;;18.60;96.80;;;;;;5036444;28;20185;-85
2023/07/08 04:28:21;;;;;;;14.80;6.67;;;19.00;93.70;;;;;;5034771;28;20447;-83
2023/07/08 04:30:47;;;;;;;12.57;6.37;;;19.00;93.90;;;;;;5040377;28;20450;-86
2023/07/08 04:33:14;;;;;;;10.63;6.27;;;20.50;91.80;;;;;;5044763;28;20454;-85
2023/07/08 04:35:41;;;;;;;14.63;6.63;;;20.50;92.10;;;;;;5047003;28;20556;-85
2023/07/08 04:38:19;;;;;;;7.23;5.03;;;22.80;82.10;;;;;;5046601;28;20501;-84
2023/07/08 04:40:44;;;;;;;12.60;7.17;;;22.90;81.60;;;;;;5046571;28;20862;-86
2023/07/08 04:43:14;;;;;;;8.53;5.30;;;23.90;76.50;;;;;;5047935;28;20463;-86
2023/07/08 04:45:42;;;;;;;13.53;6.60;;;25.10;72.20;;;;;;5050537;28;20192;-87
2023/07/08 04:48:12;;;;;;;16.13;7.60;;;24.20;68.40;;;;;;5045004;28;21311;-85
2023/07/08 04:50:49;;;;;;;13.33;6.67;;;25.60;66.30;;;;;;5038349;28;20563;-86
2023/07/08 04:53:15;;;;;;;11.63;6.33;;;;;;;;;;5038139;28;20431;-87
2023/07/08 04:55:47;;;;;;;9.17;5.73;;;28.40;54.90;;;;;;5037321;28;20440;-86
2023/07/08 04:58:13;;;;;;;10.70;7.40;;;28.30;55.20;;;;;;5042823;28;20443;-84
2023/07/08 05:00:39;;;;;;;10.77;6.50;;;;;;;;;;5042913;28;20465;-85
2023/07/08 05:03:05;;;;;;;12.20;6.87;;;;;;;;;;5041154;28;20713;-84
2023/07/08 05:05:30;;;;;;;12.47;7.03;;;32.50;50.50;;;;;;5038248;28;20435;-87
2023/07/08 05:07:56;;;;;;;9.80;5.80;;;34.00;46.80;;;;;;5041179;28;20439;-83
2023/07/08 05:10:22;;;;;;;11.97;7.40;;;;;;;;;;5037452;28;20202;-86
2023/07/08 05:12:48;;;;;;;9.33;6.47;;;;;;;;;;5029577;28;20931;-86
2023/07/08 05:15:15;;;;;;;12.37;7.77;;;30.80;45.50;;;;;;5039979;28;21380;-85
2023/07/08 05:17:41;;;;;;;9.83;6.77;;;30.70;45.90;;;;;;5033854;28;20522;-85
2023/07/08 05:20:09;;;;;;;10.23;7.80;;;30.00;47.90;;;;;;5036699;28;20547;-86
2023/07/08 05:22:35;;;;;;;11.20;7.30;;;30.80;47.90;;;;;;5037599;28;20506;-83
2023/07/08 05:25:00;;;;;;;12.63;7.50;;;30.40;48.60;;;;;;5038004;28;20475;-83
2023/07/08 05:27:26;;;;;;;10.77;7.47;;;;;;;;;;5033317;28;20439;-87
2023/07/08 05:29:52;;;;;;;12.53;7.80;;;32.60;47.60;;;;;;5038202;28;20217;-85
2023/07/08 05:32:18;;;;;;;11.10;7.73;;;34.30;45.80;;;;;;5039079;28;20441;-86
2023/07/08 05:34:44;;;;;;;11.00;8.00;;;34.80;43.40;;;;;;5041756;28;20698;-85
2023/07/08 05:37:11;;;;;;;14.00;9.13;;;35.80;42.40;;;;;;5042148;28;20527;-86
2023/07/08 05:39:37;;;;;;;11.13;8.57;;;37.20;40.90;;;;;;5036688;28;20563;-87
2023/07/08 05:42:02;;;;;;;11.40;8.73;;;37.20;38.90;;;;;;5039903;28;20989;-86
2023/07/08 05:44:29;;;;;;;10.83;7.77;;;;;;;;;;5036177;28;20448;-86
2023/07/08 05:46:54;;;;;;;13.07;8.17;;;34.40;39.90;;;;;;5037451;28;20310;-84
2023/07/08 05:49:20;;;;;;;11.57;9.10;;;33.50;41.80;;;;;;5038338;28;20550;-83
2023/07/08 05:51:46;;;;;;;11.10;8.77;;;33.80;43.30;;;;;;5037380;28;20198;-85
2023/07/08 05:54:12;;;;;;;12.37;9.00;;;;;;;;;;5035185;28;20989;-85
2023/07/08 05:56:38;;;;;;;17.07;8.30;;;32.30;41.70;;;;;;5035962;28;21466;-86
2023/07/08 05:59:04;;;;;;;11.47;8.17;;;30.80;45.80;;;;;;5037544;28;20460;-87
2023/07/08 06:01:30;;;;;;;12.10;7.80;;;;;;;;;;5033360;28;20251;-86
2023/07/08 06:03:58;;;;;;;10.47;6.90;;;29.60;47.20;;;;;;5038996;28;20471;-87
2023/07/08 06:06:24;;;;;;;10.90;7.17;;;;;;;;;;5056971;28;20741;-87
2023/07/08 06:08:49;;;;;;;9.37;6.93;;;28.60;49.20;;;;;;5039292;28;20447;-86
2023/07/08 06:11:15;;;;;;;10.37;8.63;;;;;;;;;;5040319;28;20458;-86
2023/07/08 06:13:41;;;;;;;19.63;8.00;;;26.90;53.00;;;;;;5036752;28;20222;-84
2023/07/08 06:16:06;;;;;;;13.13;7.47;;;26.00;55.00;;;;;;5033671;28;20546;-85
2023/07/08 06:18:32;;;;;;;12.43;6.30;;;;;;;;;;5035217;28;21379;-84
2023/07/08 06:20:58;;;;;;;13.53;7.53;;;25.20;57.80;;;;;;5052624;28;20234;-84
2023/07/08 06:23:25;;;;;;;12.03;6.20;;;24.10;59.90;;;;;;5037691;28;20475;-84
2023/07/08 06:25:51;;;;;;;11.03;6.90;;;23.50;62.60;;;;;;5036789;28;21038;-86
2023/07/08 06:28:16;;;;;;;10.77;7.10;;;23.50;65.00;;;;;;5036624;28;20451;-85
2023/07/08 06:30:42;;;;;;;11.60;6.33;;;;;;;;;;5052748;28;20463;-83
2023/07/08 06:33:08;;;;;;;12.83;7.40;;;24.60;66.40;;;;;;5035377;28;20189;-84
2023/07/08 06:35:34;;;;;;;12.00;7.00;;;;;;;;;;5027459;28;21624;-86
2023/07/08 06:38:00;;;;;;;10.13;6.03;;;30.50;55.10;;;;;;5033919;28;20185;-83
2023/07/08 06:40:25;;;;;;;10.50;7.13;;;33.80;47.70;;;;;;5041196;28;20546;-85
2023/07/08 06:42:51;;;;;;;9.90;7.87;;;;;;;;;;5034407;28;20295;-85
2023/07/08 06:45:17;;;;;;;10.50;9.40;;;;;;;;;;5052817;28;20307;-85
2023/07/08 06:47:43;;;;;;;10.70;9.60;;;;;;;;;;5036903;28;20508;-87
2023/07/08 06:50:09;;;;;;;9.87;8.93;;;;;;;;;;5047635;28;20510;-83
2023/07/08 06:52:36;;;;;;;11.00;10.00;;;;;;;;;;5039708;28;21087;-87
2023/07/08 06:55:05;;;;;;;11.73;9.80;;;43.60;28.60;;;;;;5041758;28;20423;-87
2023/07/08 06:57:31;;;;;;;12.50;11.30;;;;;;;;;;5040668;28;20461;-87
2023/07/08 06:59:58;;;;;;;13.70;11.90;;;;;;;;;;5038260;28;20459;-87
2023/07/08 07:02:24;;;;;;;12.80;11.80;;;;;;;;;;5035634;28;20462;-85
2023/07/08 07:04:49;;;;;;;12.60;11.30;;;;;;;;;;5038964;28;20489;-86
2023/07/08 07:07:16;;;;;;;13.40;12.30;;;;;;;;;;5029835;28;20287;-86
2023/07/08 07:09:41;;;;;;;13.60;12.50;;;;;;;;;;5053607;28;20212;-87
2023/07/08 07:12:07;;;;;;;13.53;12.33;;;48.50;28.00;;;;;;5040543;28;20427;-87
2023/07/08 07:14:33;;;;;;;14.10;12.90;;;;;;;;;;5040065;28;20187;-85
2023/07/08 07:17:00;;;;;;;12.83;11.83;;;;;;;;;;5036818;28;20185;-86
2023/07/08 07:19:26;;;;;;;15.60;14.20;;;;;;;;;;5033225;28;21328;-86
2023/07/08 07:21:52;;;;;;;13.37;12.27;;;;;;;;;;5032922;28;20565;-87
2023/07/08 07:24:18;;;;;;;13.57;12.57;;;;;;;;;;5033579;28;20204;-85
2023/07/08 07:26:44;;;;;;;14.77;13.40;;;;;;;;;;5034264;28;20564;-88
2023/07/08 07:29:10;;;;;;;14.60;13.50;;;;;;;;;;5033712;28;20462;-85
2023/07/08 07:31:39;;;;;;;14.80;13.70;;;;;;;;;;5034045;28;20451;-85
2023/07/08 07:34:05;;;;;;;14.27;13.07;;;;;;;;;;5043407;28;20415;-84
2023/07/08 07:36:31;;;;;;;12.87;11.97;;;;;;;;;;5054507;28;20518;-87
2023/07/08 07:38:57;;;;;;;13.40;12.30;;;;;;;;;;5037286;28;20541;-87
2023/07/08 07:41:23;;;;;;;12.50;11.50;;;;;;;;;;5031945;28;20232;-85
2023/07/08 07:43:49;;;;;;;13.13;11.93;;;;;;;;;;5039729;28;20550;-85
2023/07/08 07:46:16;;;;;;;11.83;10.83;;;47.40;24.60;;;;;;5038988;28;20230;-86
2023/07/08 07:48:42;;;;;;;12.90;11.67;;;;;;;;;;5037750;28;20192;-86
2023/07/08 07:51:10;;;;;;;13.07;12.10;;;;;;;;;;5033954;28;20430;-84
2023/07/08 07:53:36;;;;;;;12.10;11.00;;;;;;;;;;5030424;28;20431;-85
2023/07/08 07:56:03;;;;;;;12.50;11.33;;;41.90;26.30;;;;;;5039646;28;21025;-86
2023/07/08 07:58:29;;;;;;;14.00;12.70;;;;;;;;;;5044784;28;20443;-85
2023/07/08 08:00:55;;;;;;;13.80;12.50;;;39.80;28.10;;;;;;5043634;28;20422;-86
2023/07/08 08:03:21;;;;;;;13.13;11.97;;;;;;;;;;5046099;28;20455;-85
2023/07/08 08:05:48;;;;;;;12.30;11.20;;;36.80;30.70;;;;;;5042131;28;20164;-87
2023/07/08 08:08:14;;;;;;;13.93;11.33;;;36.70;32.60;;;;;;5045505;28;20438;-87
2023/07/08 08:10:40;;;;;;;14.50;13.20;;;36.60;32.70;;;;;;5043018;28;20450;-86
2023/07/08 08:13:05;;;;;;;11.60;10.60;;;37.00;32.80;;;;;;5049414;28;20442;-86
2023/07/08 08:15:31;;;;;;;12.90;11.53;;;37.00;33.00;;;;;;5044686;28;20199;-85
2023/07/08 08:17:56;;;;;;;12.13;10.10;;;38.00;33.10;;;;;;5044587;28;20190;-85
2023/07/08 08:20:24;;;;;;;11.20;9.97;;;38.40;32.50;;;;;;5039783;28;20302;-86
2023/07/08 08:22:50;;;;;;;11.00;10.20;;;38.30;31.20;;;;;;5039629;28;20227;-86
2023/07/08 08:25:18;;;;;;;10.50;9.43;;;40.30;30.60;;;;;;5039826;28;21044;-86
2023/07/08 08:27:44;;;;;;;11.37;10.30;;;;;;;;;;5041117;28;20510;-86
2023/07/08 08:30:10;;;;;;;11.90;10.17;;;;;;;;;;5057300;28;21484;-86
2023/07/08 08:32:36;;;;;;;11.70;10.60;;;;;;;;;;5037184;28;20439;-87
2023/07/08 08:35:02;;;;;;;10.77;9.80;;;;;;;;;;5038461;28;20565;-87
2023/07/08 08:37:28;;;;;;;10.50;9.57;;;;;;;;;;5040326;28;20464;-86
2023/07/08 08:39:54;;;;;;;12.93;11.63;;;;;;;;;;5036335;28;20503;-87
2023/07/08 08:42:39;;;;;;;12.43;11.13;;;43.40;27.60;;;;;;5038314;28;20475;-86
2023/07/08 08:45:10;;;;;;;11.23;10.23;;;44.40;28.50;;;;;;5041112;28;20732;-87
2023/07/08 08:47:41;;;;;;;13.10;12.00;;;44.30;26.40;;;;;;5041580;28;20435;-87
2023/07/08 08:50:07;;;;;;;11.73;10.77;;;;;;;;;;5050956;28;20589;-84
2023/07/08 08:52:33;;;;;;;12.30;11.37;;;;;;;;;;5030632;28;20439;-84
2023/07/08 08:54:59;;;;;;;12.37;11.40;;;;;;;;;;5036659;28;20451;-87
2023/07/08 08:57:55;;;;;;;19.00;12.00;;;41.00;28.30;;;;;;5046615;28;20546;-85
2023/07/08 09:00:32;;;;;;;12.30;11.07;;;42.00;28.80;;;;;;5041209;28;20490;-88
2023/07/08 09:03:17;;;;;;;11.57;10.53;;;42.50;27.80;;;;;;5044106;28;20558;-88
2023/07/08 09:05:45;;;;;;;13.30;12.20;;;42.10;27.80;;;;;;5039847;28;20437;-86
2023/07/08 09:08:31;;;;;;;14.40;13.10;;;42.70;28.00;;;;;;5052565;28;20453;-87
2023/07/08 09:11:05;;;;;;;13.53;10.97;;;42.70;27.90;;;;;;5044275;28;21186;-88
2023/07/08 09:13:36;;;;;;;12.83;11.83;;;41.60;28.30;;;;;;5049366;28;20434;-84
2023/07/08 09:16:13;;;;;;;12.87;11.77;;;41.00;28.70;;;;;;5081877;28;20534;-85
2023/07/08 09:18:49;;;;;;;15.93;12.17;;;41.40;28.90;;;;;;5045368;28;20541;-88
2023/07/08 09:21:24;;;;;;;12.23;10.93;;;42.00;28.70;;;;;;5053077;28;20449;-85
2023/07/08 09:23:54;;;;;;;12.70;11.53;;;41.00;28.30;;;;;;5038352;28;20441;-85
2023/07/08 09:26:23;;;;;;;12.27;11.20;;;40.00;28.90;;;;;;5041282;28;20431;-87
2023/07/08 09:28:49;;;;;;;11.57;10.47;;;;;;;;;;5036768;28;20463;-87
2023/07/08 09:31:29;;;;;;;11.87;10.70;;;40.90;28.80;;;;;;5031050;28;20443;-85
2023/07/08 09:34:07;;;;;;;10.53;9.53;;;42.30;28.30;;;;;;5024002;28;20227;-88
2023/07/08 09:36:33;;;;;;;11.53;10.43;;;43.50;33.20;;;;;;5037557;28;20432;-89
2023/07/08 09:39:00;;;;;;;11.83;10.67;;;44.50;27.20;;;;;;5033465;28;20470;-86
2023/07/08 09:41:33;;;;;;;11.17;10.17;;;45.20;26.10;;;;;;5032437;28;20262;-87
2023/07/08 09:44:17;;;;;;;12.40;11.17;;;45.40;25.70;;;;;;5036450;28;20518;-88
2023/07/08 09:46:44;;;;;;;11.40;10.60;;;45.60;25.90;;;;;;5042816;28;20431;-88
2023/07/08 09:49:22;;;;;;;11.80;10.90;;;46.00;25.40;;;;;;5041457;28;20465;-87
2023/07/08 09:51:50;;;;;;;11.43;10.13;;;;;;;;;;5044800;28;20431;-89
2023/07/08 09:54:16;;;;;;;13.63;12.30;;;;;;;;;;5051505;28;20475;-89
2023/07/08 09:56:45;;;;;;;13.10;12.13;;;45.40;25.40;;;;;;5037412;28;20439;-88
2023/07/08 09:59:14;;;;;;;12.63;11.73;;;45.40;25.50;;;;;;5053968;28;20465;-86
2023/07/08 10:01:42;;;;;;;12.90;11.80;;;44.50;25.80;;;;;;5037183;28;20459;-88
2023/07/08 10:04:08;;;;;;;14.10;12.97;;;;;;;;;;5034985;28;20919;-85
2023/07/08 10:06:35;;;;;;;11.47;10.57;;;44.20;26.90;;;;;;5035799;28;20500;-86
2023/07/08 10:09:13;;;;;;;14.30;13.10;;;44.00;27.00;;;;;;5037537;28;21033;-86
2023/07/08 10:11:44;;;;;;;15.03;13.90;;;44.60;26.50;;;;;;5026121;28;20431;-85
2023/07/08 10:14:37;;;;;;;11.10;10.20;;;43.50;26.30;;;;;;5021810;28;20443;-85
2023/07/08 10:17:03;;;;;;;13.60;11.63;;;;;;;;;;5029339;28;20931;-87
2023/07/08 10:19:29;;;;;;;12.23;11.37;;;;;;;;;;5034624;28;20458;-86
2023/07/08 10:22:15;;;;;;;12.43;11.20;;;40.70;28.30;;;;;;5053387;28;20489;-88
2023/07/08 10:25:05;;;;;;;12.17;11.27;;;39.80;29.30;;;;;;5049801;28;20431;-85
2023/07/08 10:27:52;;;;;;;11.70;10.80;;;39.20;30.00;;;;;;5044325;28;20435;-86
2023/07/08 10:30:22;;;;;;;11.43;10.53;;;36.00;32.30;;;;;;5039342;28;20486;-86
2023/07/08 10:33:14;;;;;;;10.00;9.10;;;36.10;32.90;;;;;;5043532;28;20430;-84
2023/07/08 10:35:58;;;;;;;10.00;9.07;;;35.40;34.90;;;;;;5044708;28;20475;-87
2023/07/08 10:38:36;;;;;;;10.13;9.33;;;36.10;35.40;;;;;;5045051;28;20434;-87
2023/07/08 10:41:20;;;;;;;9.13;8.43;;;37.70;33.30;;;;;;5043212;28;20491;-86
2023/07/08 10:44:04;;;;;;;12.43;9.00;;;37.70;33.40;;;;;;5040517;28;20584;-85
2023/07/08 10:46:51;;;;;;;10.43;9.60;;;36.70;33.30;;;;;;5038976;28;21012;-85
2023/07/08 10:49:45;;;;;;;10.80;9.27;;;35.70;34.60;;;;;;5039450;28;20808;-85
2023/07/08 10:52:39;;;;;;;10.03;9.23;;;34.60;36.40;;;;;;5042905;28;20428;-85
2023/07/08 10:55:35;;;;;;;9.70;8.90;;;33.50;38.20;;;;;;5042746;28;20517;-86
2023/07/08 10:58:13;;;;;;;9.60;8.27;;;33.00;38.70;;;;;;5055285;28;20426;-86
2023/07/08 11:00:59;;;;;;;8.53;7.57;;;32.30;40.50;;;;;;5041154;28;20506;-85
2023/07/08 11:03:49;;;;;;;9.77;7.90;;;32.30;40.10;;;;;;5044135;28;20957;-87
2023/07/08 11:06:20;;;;;;;8.77;7.87;;;32.40;40.70;;;;;;5046840;28;20464;-84
2023/07/08 11:08:51;;;;;;;12.60;8.00;;;32.90;38.70;;;;;;5043108;28;20485;-86
2023/07/08 11:11:22;;;;;;;8.90;8.03;;;33.00;39.30;;;;;;5062413;28;20432;-86
2023/07/08 11:13:54;;;;;;;10.03;8.53;;;32.90;38.90;;;;;;5043526;28;20462;-86
2023/07/08 11:16:33;;;;;;;9.57;8.20;;;33.10;39.30;;;;;;5044032;28;20490;-87
2023/07/08 11:19:30;;;;;;;8.73;7.93;;;33.20;39.00;;;;;;5046652;28;20473;-86
2023/07/08 11:22:00;;;;;;;9.57;8.47;;;33.60;38.90;;;;;;5040570;28;20472;-85
2023/07/08 11:24:35;;;;;;;10.03;9.03;;;33.70;38.80;;;;;;5044423;28;20837;-86
2023/07/08 11:27:37;;;;;;;11.80;8.70;;;33.70;38.40;;;;;;5041610;28;20432;-86
2023/07/08 11:30:11;;;;;;;10.00;8.37;;;33.60;38.20;;;;;;5040753;28;20474;-87
2023/07/08 11:32:39;;;;;;;8.37;7.47;;;33.40;39.20;;;;;;5044810;28;20428;-86
2023/07/08 11:35:13;;;;;;;8.33;7.50;;;33.10;39.60;;;;;;5039923;28;20440;-86
2023/07/08 11:37:39;;;;;;;8.63;7.83;;;32.80;40.20;;;;;;5042149;28;20478;-88
2023/07/08 11:40:05;;;;;;;9.33;8.53;;;;;;;;;;5044200;28;20799;-86
2023/07/08 11:42:34;;;;;;;8.53;7.53;;;33.20;39.10;;;;;;5042595;28;20466;-86
2023/07/08 11:45:00;;;;;;;7.73;7.10;;;32.90;39.60;;;;;;5043924;28;20425;-85
2023/07/08 11:47:45;;;;;;;7.27;6.67;;;32.90;39.80;;;;;;5036049;28;20428;-86
2023/07/08 11:50:24;;;;;;;8.83;8.03;;;32.60;39.80;;;;;;5048486;28;20439;-85
2023/07/08 11:53:06;;;;;;;8.67;7.80;;;32.30;40.70;;;;;;5066189;28;20418;-84
2023/07/08 11:55:43;;;;;;;11.83;8.37;;;32.20;41.60;;;;;;5077320;28;20436;-85
2023/07/08 11:58:24;;;;;;;9.67;7.53;;;32.40;41.20;;;;;;5063843;28;20475;-85
2023/07/08 12:01:03;;;;;;;9.53;7.60;;;32.20;42.00;;;;;;5039667;28;20465;-87
2023/07/08 12:03:37;;;;;;;8.17;7.23;;;32.00;41.30;;;;;;5046174;28;20992;-85
2023/07/08 12:06:23;;;;;;;8.07;6.73;;;32.30;43.50;;;;;;5044086;28;20430;-84
2023/07/08 12:08:48;;;;;;;6.63;5.93;;;32.00;42.70;;;;;;5046693;28;20549;-86
2023/07/08 12:11:14;;;;;;;8.80;7.30;;;;;;;;;;5042790;28;20421;-85
2023/07/08 12:13:41;;;;;;;7.80;7.07;;;;;;;;;;5040218;28;20193;-85
2023/07/08 12:16:13;;;;;;;6.20;5.50;;;31.00;43.50;;;;;;5042493;28;20533;-84
2023/07/08 12:18:45;;;;;;;5.87;5.27;;;30.70;44.10;;;;;;5043185;28;20433;-85
2023/07/08 12:21:13;;;;;;;7.77;6.30;;;30.70;44.80;;;;;;5047528;28;20526;-86
2023/07/08 12:23:47;;;;;;;8.53;6.47;;;30.90;45.50;;;;;;5047814;28;20491;-84
2023/07/08 12:26:14;;;;;;;6.83;6.10;;;31.00;44.80;;;;;;5045328;28;20446;-86
2023/07/08 12:28:40;;;;;;;7.27;6.00;;;31.50;43.70;;;;;;5043720;28;20452;-85
2023/07/08 12:31:21;;;;;;;8.73;7.83;;;31.50;44.20;;;;;;5044002;28;20428;-85
2023/07/08 12:33:48;;;;;;;9.80;7.03;;;31.70;43.80;;;;;;5044137;28;20213;-86
2023/07/08 12:36:21;;;;;;;9.20;6.53;;;32.60;43.40;;;;;;5042965;28;20440;-88
2023/07/08 12:38:49;;;;;;;7.77;6.90;;;32.80;40.90;;;;;;5042984;28;20440;-86
2023/07/08 12:41:33;;;;;;;7.53;6.83;;;32.70;41.60;;;;;;5040612;28;20437;-85
2023/07/08 12:44:00;;;;;;;8.23;6.33;;;32.60;41.80;;;;;;5044910;28;20441;-84
2023/07/08 12:46:27;;;;;;;8.30;5.47;;;32.00;41.90;;;;;;5044022;28;20439;-84
2023/07/08 12:48:52;;;;;;;9.73;5.67;;;31.90;43.90;;;;;;5041191;28;20471;-85
2023/07/08 12:51:21;;;;;;;7.80;7.00;;;31.90;42.40;;;;;;5046130;28;20422;-85
2023/07/08 12:53:47;;;;;;;6.80;6.20;;;32.20;43.70;;;;;;5046780;28;20187;-85
2023/07/08 12:56:14;;;;;;;8.07;6.60;;;32.10;41.40;;;;;;5047632;28;20438;-84
2023/07/08 12:58:42;;;;;;;7.63;6.80;;;32.20;41.10;;;;;;5046098;28;20429;-85
2023/07/08 13:01:13;;;;;;;13.20;6.97;;;32.20;41.80;;;;;;5040646;28;20452;-86
2023/07/08 13:03:43;;;;;;;7.20;6.60;;;32.20;42.20;;;;;;5035794;28;20495;-86
2023/07/08 13:06:11;;;;;;;7.20;6.50;;;32.70;41.40;;;;;;5040201;28;20506;-85
2023/07/08 13:08:38;;;;;;;6.23;5.63;;;32.90;40.50;;;;;;5041093;28;20445;-86
2023/07/08 13:11:06;;;;;;;8.50;6.67;;;32.80;40.90;;;;;;5044437;28;21025;-87